Startpagina
METAR-TAF:

METAR-TAF

Vliegvelden :

Salinas, Ecuador

breedte: 02-12-18S, lengte: 080-59-20W, hoogte: 5 m

Actueel weer

Dit bericht is 23 minuten geleden gemaakt, om 20:00 UTC
Wind 10 kt uit het westzuidwesten
Temperatuur 28°C
Vochtigheid 74%
Druk 1010 hPa
Zicht 10 km of meer
Verspreide wolken op 2000 ft
Gebroken wolken op 8000 ft

METAR: SESA 222000Z 25010KT 9999 SCT020 BKN080 28/23 Q1010

Tijdstip: 15:23 (20:23 UTC)


TAF: ontbreekt

Waarnemingen en weersverwachtingen van meer dan 4000 vliegvelden (METAR en TAF).

De beschikbare stations zijn de gele en rode punten op de kaart.

Ga met uw muis naar het station om de naam te zien.

Klik dan om waarnemingen en weersverwachtingen te zien.

kaart wijzigen: klik op de groene knoppen met een zwart kruis om in te zoomen, op de groene knop met een streepje om uit te zoomen of op de groene pijlen voor aangrenzende kaarten.


METAR-TAF: